createdAt,value
2023-02-26T00:00:44.770Z,2.13
2023-02-26T00:06:55.532Z,2.20
2023-02-26T00:13:00.720Z,2.35
2023-02-26T00:19:07.294Z,1.90
2023-02-26T00:25:12.234Z,1.55
2023-02-26T00:31:16.445Z,2.10
2023-02-26T00:37:29.541Z,1.70
2023-02-26T00:43:33.144Z,1.83
2023-02-26T00:49:43.717Z,2.08
2023-02-26T00:55:48.704Z,2.05
2023-02-26T01:01:52.428Z,1.92
2023-02-26T01:08:00.777Z,1.85
2023-02-26T01:14:06.159Z,1.90
2023-02-26T01:20:12.645Z,2.40
2023-02-26T01:26:21.475Z,1.80
2023-02-26T01:32:28.431Z,2.00
2023-02-26T01:38:36.120Z,1.83
2023-02-26T01:44:43.757Z,2.65
2023-02-26T01:50:48.955Z,1.83
2023-02-26T01:56:53.748Z,2.08
2023-02-26T02:02:57.208Z,1.65
2023-02-26T02:09:03.877Z,1.73
2023-02-26T02:15:11.650Z,1.90
2023-02-26T02:21:32.913Z,1.88
2023-02-26T02:27:43.585Z,1.55
2023-02-26T02:33:51.163Z,1.88
2023-02-26T02:39:56.544Z,1.48
2023-02-26T02:46:04.094Z,1.40
2023-02-26T02:52:14.023Z,1.85
2023-02-26T02:58:20.027Z,1.60
2023-02-26T03:04:23.542Z,1.52
2023-02-26T03:10:28.602Z,1.30
2023-02-26T03:16:38.653Z,1.50
2023-02-26T03:22:44.589Z,1.40
2023-02-26T03:28:52.520Z,1.48
2023-02-26T03:34:57.949Z,1.08
2023-02-26T03:41:04.151Z,1.10
2023-02-26T03:47:10.333Z,1.98
2023-02-26T03:53:15.228Z,1.75
2023-02-26T03:59:18.868Z,0.90
2023-02-26T04:05:25.693Z,1.20
2023-02-26T04:11:29.332Z,1.08
2023-02-26T04:17:32.725Z,1.00
2023-02-26T04:23:37.525Z,1.00
2023-02-26T04:29:40.903Z,1.52
2023-02-26T04:35:44.358Z,1.20
2023-02-26T04:41:49.167Z,1.05
2023-02-26T04:47:53.239Z,0.90
2023-02-26T04:53:56.730Z,1.08
2023-02-26T05:00:01.547Z,0.65
2023-02-26T05:06:04.954Z,1.30
2023-02-26T05:12:08.327Z,0.80
2023-02-26T05:18:13.379Z,0.80
2023-02-26T05:24:17.221Z,1.35
2023-02-26T05:30:20.660Z,0.95
2023-02-26T05:36:25.712Z,1.00
2023-02-26T05:42:29.582Z,0.85
2023-02-26T05:48:32.999Z,0.77
2023-02-26T05:54:37.766Z,0.90
2023-02-26T06:00:41.206Z,0.93
2023-02-26T06:06:44.605Z,0.82
2023-02-26T06:12:49.712Z,0.77
2023-02-26T06:18:53.296Z,1.20
2023-02-26T06:24:56.717Z,0.98
2023-02-26T06:31:01.555Z,1.38
2023-02-26T06:37:05.197Z,1.25
2023-02-26T06:43:08.649Z,0.95
2023-02-26T06:49:13.389Z,1.00
2023-02-26T06:55:16.907Z,1.52
2023-02-26T07:01:20.723Z,1.00
2023-02-26T07:07:25.586Z,0.90
2023-02-26T07:13:29.008Z,1.00
2023-02-26T07:19:32.408Z,1.23
2023-02-26T07:25:37.420Z,1.20
2023-02-26T07:31:40.866Z,1.80
2023-02-26T07:37:44.319Z,1.90
2023-02-26T07:43:49.318Z,1.10
2023-02-26T07:49:52.688Z,0.80
2023-02-26T07:55:56.109Z,1.15
2023-02-26T08:02:01.067Z,1.13
2023-02-26T08:08:04.497Z,1.45
2023-02-26T08:14:07.952Z,0.90
2023-02-26T08:20:15.361Z,0.95
2023-02-26T08:26:18.781Z,1.10
2023-02-26T08:32:23.135Z,0.90
2023-02-26T08:38:28.817Z,1.67
2023-02-26T08:44:32.373Z,0.75
2023-02-26T08:50:35.791Z,0.80
2023-02-26T08:56:40.660Z,0.80
2023-02-26T09:02:44.505Z,0.75
2023-02-26T09:08:48.349Z,0.68
2023-02-26T09:14:53.219Z,0.75
2023-02-26T09:20:56.745Z,0.50
2023-02-26T09:27:00.873Z,0.70
2023-02-26T09:33:05.790Z,0.50
2023-02-26T09:39:09.826Z,0.70
2023-02-26T09:45:15.493Z,0.70
2023-02-26T09:51:23.366Z,0.63
2023-02-26T09:57:29.723Z,0.45
2023-02-26T10:03:36.279Z,0.50
2023-02-26T10:09:46.280Z,0.50
2023-02-26T10:15:52.375Z,0.60
2023-02-26T10:21:58.588Z,0.40
2023-02-26T10:28:08.394Z,0.63
2023-02-26T10:34:18.978Z,0.40
2023-02-26T10:40:29.097Z,0.55
2023-02-26T10:46:37.991Z,0.45
2023-02-26T10:52:43.236Z,0.40
2023-02-26T10:58:47.433Z,0.60
2023-02-26T11:05:06.714Z,0.80
2023-02-26T11:11:10.821Z,0.80
2023-02-26T11:17:16.268Z,1.60
2023-02-26T11:23:23.003Z,0.70
2023-02-26T11:29:27.278Z,0.90
2023-02-26T11:35:30.861Z,0.60
2023-02-26T11:41:38.080Z,0.77
2023-02-26T11:47:41.511Z,0.75
2023-02-26T11:53:46.299Z,0.88
2023-02-26T11:59:52.181Z,0.30
2023-02-26T12:05:55.620Z,0.93
2023-02-26T12:12:10.326Z,0.68
2023-02-26T12:18:22.438Z,0.90
2023-02-26T12:24:35.655Z,0.32
2023-02-26T12:30:49.626Z,0.70
2023-02-26T12:37:00.505Z,0.68
2023-02-26T12:43:08.780Z,0.43
2023-02-26T12:49:32.990Z,0.40
2023-02-26T12:55:42.081Z,0.60
2023-02-26T13:02:00.852Z,0.70
2023-02-26T13:08:09.276Z,0.60
2023-02-26T13:14:21.538Z,1.08
2023-02-26T13:20:26.162Z,0.68
2023-02-26T13:26:30.835Z,1.00
2023-02-26T13:32:36.373Z,0.80
2023-02-26T13:38:47.849Z,0.70
2023-02-26T13:44:56.450Z,0.70
2023-02-26T13:51:04.331Z,0.95
2023-02-26T13:57:09.225Z,0.68
2023-02-26T14:03:13.498Z,0.60
2023-02-26T14:15:54.811Z,0.77
2023-02-26T14:21:59.141Z,0.70
2023-02-26T14:28:22.297Z,0.80
2023-02-26T14:34:27.868Z,0.82
2023-02-26T14:40:32.193Z,0.70
2023-02-26T14:46:36.962Z,0.73
2023-02-26T14:52:59.044Z,1.02
2023-02-26T14:59:10.727Z,0.80
2023-02-26T15:05:23.535Z,1.00
2023-02-26T15:11:34.803Z,1.08
2023-02-26T15:17:46.372Z,0.68
2023-02-26T15:23:50.898Z,0.85
2023-02-26T15:29:54.986Z,0.55
2023-02-26T15:36:00.483Z,0.80
2023-02-26T15:42:05.326Z,0.90
2023-02-26T15:48:10.826Z,0.73
2023-02-26T15:54:18.199Z,0.82
2023-02-26T16:00:25.612Z,1.13
2023-02-26T16:06:30.886Z,0.70
2023-02-26T16:12:38.618Z,0.73
2023-02-26T16:18:42.837Z,0.93
2023-02-26T16:24:47.158Z,1.10
2023-02-26T16:30:54.330Z,1.00
2023-02-26T16:36:58.165Z,1.10
2023-02-26T16:43:03.662Z,1.00
2023-02-26T16:49:12.422Z,0.85
2023-02-26T16:55:18.506Z,1.38
2023-02-26T17:01:23.547Z,1.27
2023-02-26T17:07:29.512Z,1.45
2023-02-26T17:13:34.171Z,4.90
2023-02-26T17:19:38.019Z,1.48
2023-02-26T17:25:44.463Z,1.60
2023-02-26T17:31:47.986Z,2.03
2023-02-26T17:37:53.839Z,1.48
2023-02-26T17:43:58.771Z,2.35
2023-02-26T17:50:02.573Z,3.30
2023-02-26T17:56:07.330Z,2.08
2023-02-26T18:02:18.094Z,1.65
2023-02-26T18:08:23.828Z,1.40
2023-02-26T18:14:27.313Z,1.67
2023-02-26T18:20:33.014Z,2.00
2023-02-26T18:26:36.408Z,1.88
2023-02-26T18:32:40.216Z,1.98
2023-02-26T18:38:45.011Z,2.58
2023-02-26T18:44:48.439Z,3.08
2023-02-26T18:50:52.224Z,2.38
2023-02-26T18:56:57.012Z,2.92
2023-02-26T19:03:00.652Z,2.22
2023-02-26T19:09:04.640Z,1.70
2023-02-26T19:15:10.554Z,1.63
2023-02-26T19:21:13.973Z,2.13
2023-02-26T19:27:17.897Z,3.97
2023-02-26T19:33:24.059Z,2.60
2023-02-26T19:46:30.244Z,2.17
2023-02-26T19:52:37.300Z,4.50
2023-02-26T19:58:41.502Z,1.83
2023-02-26T20:04:44.862Z,2.80
2023-02-26T20:10:52.112Z,1.70
2023-02-26T20:16:55.505Z,2.75
2023-02-26T20:22:58.922Z,1.70
2023-02-26T20:29:04.362Z,2.47
2023-02-26T20:35:08.368Z,1.83
2023-02-26T20:41:12.330Z,2.60
2023-02-26T20:47:17.256Z,6.13
2023-02-26T20:53:20.786Z,2.80
2023-02-26T20:59:24.291Z,2.45
2023-02-26T21:05:29.232Z,2.13
2023-02-26T21:11:36.839Z,2.35
2023-02-26T21:17:41.341Z,2.53
2023-02-26T21:23:46.117Z,1.40
2023-02-26T21:29:49.526Z,1.75
2023-02-26T21:35:53.174Z,2.22
2023-02-26T21:41:59.293Z,2.28
2023-02-26T21:48:03.660Z,2.50
2023-02-26T21:54:07.145Z,1.70
2023-02-26T22:00:12.774Z,1.92
2023-02-26T22:06:16.208Z,1.50
2023-02-26T22:12:19.746Z,1.85
2023-02-26T22:18:24.707Z,1.95
2023-02-26T22:24:28.252Z,1.42
2023-02-26T22:30:31.693Z,1.30
2023-02-26T22:36:36.747Z,1.40
2023-02-26T22:42:40.552Z,1.63
2023-02-26T22:48:43.990Z,1.73
2023-02-26T22:54:48.743Z,1.20
2023-02-26T23:00:52.774Z,1.50
2023-02-26T23:06:56.508Z,1.30
2023-02-26T23:13:03.139Z,1.00
2023-02-26T23:19:06.632Z,1.40
2023-02-26T23:25:10.588Z,1.30
2023-02-26T23:31:15.406Z,1.25
2023-02-26T23:37:18.970Z,1.30
2023-02-26T23:43:22.749Z,1.25
2023-02-26T23:49:27.803Z,1.50
2023-02-26T23:55:31.199Z,1.30
